Buoy 32622

sailwx.info

Track history (hours):
 
Tides and Currents Weather Stations Pressure Air Temp Water Temp Dewpoint Dewpoint Depression Visibility Wind Speed Wind Dir Waves Ship Positions

Aadnyj

Last reported at 2016-Jul-25 16:00 UTC. Time now 2016-Jul-25 20:07 UTC.
Position S 01°03' W 102°42'.

Length 56 m.

Type: Towing. MMSI: 413600286.

Water temperature 21.9 ° C

Date/timePositionNaut miles runAvg speedWind from/ knotsBaromVisibWave heightAir tempDewpointWater temp
2016-Jul-25 16:00S 01°03' W 102°42'0 0.0 21.9
2016-Jul-25 14:00S 01°03' W 102°42'2 2.4 21.9
2016-Jul-25 13:00S 01°04' W 102°40'3 3.3 21.9
2016-Jul-25 12:00S 01°06' W 102°42'4 0.6 22.0
2016-Jul-25 05:00S 01°11' W 102°43'2 0.5 22.2
2016-Jul-25 01:00S 01°13' W 102°43'2 1.6 22.4
2016-Jul-25 00:00S 01°14' W 102°43'0 0.0 22.4
2016-Jul-24 23:00S 01°14' W 102°43'5 1.6 22.4
2016-Jul-24 20:00S 01°19' W 102°44'1 0.1 22.4
2016-Jul-24 16:00S 01°18' W 102°43'4 1.0 22.0
2016-Jul-24 12:00S 01°22' W 102°44'0 0.0 22.1
2016-Jul-24 11:00S 01°22' W 102°44'2 1.1 22.1
2016-Jul-24 09:00S 01°23' W 102°46'6 1.0 22.2
2016-Jul-24 03:00S 01°29' W 102°46'0 0.3 22.3
2016-Jul-24 02:00S 01°29' W 102°46'0 0.0 22.4
2016-Jul-24 01:00S 01°29' W 102°46'1 0.8 22.5
2016-Jul-24 00:00S 01°30' W 102°46'2 0.8 22.6
2016-Jul-23 22:00S 01°31' W 102°47'5 2.3 22.6
2016-Jul-23 20:00S 01°36' W 102°49'2 0.5 22.7
2016-Jul-23 15:00S 01°37' W 102°51'2 1.8 22.2
2016-Jul-23 14:00S 01°39' W 102°50'1 1.4 22.2
2016-Jul-23 13:00S 01°40' W 102°51'0 0.4 22.2
2016-Jul-23 12:00S 01°40' W 102°51'1010.0 22.2
2016-Jul-23 11:00S 01°49' W 102°56'0 0.0 22.3
2016-Jul-23 09:00S 01°49' W 102°56'0 0.0 22.4
2016-Jul-23 04:00S 01°49' W 102°56'0 0.0 22.5
2016-Jul-23 01:00S 01°49' W 102°56'1 1.4 22.6
2016-Jul-23 00:00S 01°49' W 102°57'1 1.3 22.7
2016-Jul-22 23:00S 01°50' W 102°57'2 1.9 22.9
2016-Jul-22 22:00S 01°52' W 102°58'0 0.0 22.9
2016-Jul-22 20:00S 01°52' W 102°58'2 0.7 22.7
2016-Jul-22 17:00S 01°54' W 102°57'1 0.6 22.3
2016-Jul-22 15:00S 01°55' W 102°58'2 1.2 22.1
2016-Jul-22 13:00S 01°57' W 102°58'3 2.5 22.2
2016-Jul-22 12:00S 01°60' W 102°58'0 0.0 22.2
2016-Jul-22 11:00S 01°60' W 102°58'0 0.0 22.2
2016-Jul-22 09:00S 01°60' W 102°58'6 6.4 22.3
2016-Jul-22 08:00S 02°05' W 103°01'4 1.0 22.3
2016-Jul-22 04:00S 02°08' W 103°04'0 0.0 22.5
2016-Jul-22 03:00S 02°08' W 103°04'1 0.4 22.5
2016-Jul-22 01:00S 02°08' W 103°04'2 2.3 22.6
2016-Jul-22 00:00S 02°10' W 103°05'0 0.0 22.7
2016-Jul-21 23:00S 02°10' W 103°05'3 3.0 22.8
2016-Jul-21 22:00S 02°13' W 103°06'0 0.0 22.9
2016-Jul-21 21:00S 02°13' W 103°06'6 5.6 22.9
2016-Jul-21 20:00S 02°17' W 103°10'1 0.3 22.8
2016-Jul-21 16:00S 02°18' W 103°10'6 2.8 22.4
2016-Jul-21 14:00S 02°23' W 103°13'3 1.6 22.3
2016-Jul-21 12:00S 02°25' W 103°16'0 0.1 22.3
2016-Jul-21 10:00S 02°25' W 103°16'7 3.6 22.4
2016-Jul-21 08:00S 02°29' W 103°22'0 0.0 22.5
2016-Jul-21 05:00S 02°29' W 103°22'2 2.5 22.6
2016-Jul-21 04:00S 02°30' W 103°24'4 1.2 22.6
2016-Jul-21 01:00S 02°33' W 103°26'2 2.1 22.9
2016-Jul-21 00:00S 02°34' W 103°28'4 1.8 23.0
2016-Jul-20 22:00S 02°35' W 103°31'7 6.6 23.1
2016-Jul-20 21:00S 02°36' W 103°38'5 1.0 23.0
2016-Jul-20 16:00S 02°39' W 103°42'0 0.1 22.4
2016-Jul-20 13:00S 02°39' W 103°42'3 2.6 22.4
2016-Jul-20 12:00S 02°39' W 103°44'2 1.2 22.4
2016-Jul-20 10:00S 02°40' W 103°47'0 0.2 22.3
2016-Jul-20 08:00S 02°41' W 103°46'6 2.0 22.2
2016-Jul-20 05:00S 02°41' W 103°52'2 0.6 22.2
2016-Jul-20 02:00S 02°41' W 103°54'3 2.8 22.5
2016-Jul-20 01:00S 02°42' W 103°57'0 0.1 22.6
2016-Jul-19 23:00S 02°41' W 103°57'3 1.3 22.7
2016-Jul-19 21:00S 02°42' W 103°60'10 1.2 22.9
2016-Jul-19 13:00S 02°41' W 104°09'0 0.0 21.9
2016-Jul-19 12:00S 02°41' W 104°09'3 1.4 21.8
2016-Jul-19 10:00S 02°41' W 104°12'10 1.7 21.8
2016-Jul-19 04:00S 02°37' W 104°22'0 0.0 22.3
2016-Jul-19 03:00S 02°37' W 104°22'0 0.0 22.3
2016-Jul-19 02:00S 02°37' W 104°22'2 1.7 22.4
2016-Jul-19 01:00S 02°36' W 104°23'0 0.4 22.5
2016-Jul-19 00:00S 02°36' W 104°24'4 3.7 22.7
2016-Jul-18 23:00S 02°35' W 104°27'3 1.5 22.7
2016-Jul-18 21:00S 02°33' W 104°30'0 0.0 22.7
2016-Jul-18 17:00S 02°33' W 104°30'4 2.1 21.7
2016-Jul-18 15:00S 02°31' W 104°33'0 0.3 21.1
2016-Jul-18 14:00S 02°31' W 104°33'3 0.7 21.0
2016-Jul-18 10:00S 02°30' W 104°36'2 0.8 21.1
2016-Jul-18 08:00S 02°29' W 104°37'9 1.5 21.1
2016-Jul-18 02:00S 02°24' W 104°44'0 0.4 21.3
2016-Jul-18 01:00S 02°24' W 104°44'3 3.1 21.5
2016-Jul-18 00:00S 02°21' W 104°45'6 1.9 21.6
2016-Jul-17 21:00S 02°16' W 104°49'0 0.0 21.9
2016-Jul-17 17:00S 02°16' W 104°49'5 2.6 21.0
2016-Jul-17 15:00S 02°13' W 104°52'3 1.7 20.7
2016-Jul-17 13:00S 02°10' W 104°54'3 2.6 20.8
2016-Jul-17 12:00S 02°07' W 104°55'0 0.0 20.8
2016-Jul-17 11:00S 02°07' W 104°55'9 1.3 20.8
2016-Jul-17 04:00S 01°58' W 104°58'0 0.0 21.4
2016-Jul-17 03:00S 01°58' W 104°58'2 1.9 21.6
2016-Jul-17 02:00S 01°56' W 104°58'4 2.1 21.6
2016-Jul-17 00:00S 01°53' W 104°59'0 0.0 22.3
2016-Jul-16 22:00S 01°53' W 104°59'5 4.7 22.5
2016-Jul-16 21:00S 01°48' W 104°59'0 0.0 22.3
2016-Jul-16 20:00S 01°48' W 104°59'3 0.7 22.2
2016-Jul-16 16:00S 01°46' W 105°00'1 1.4 21.2
2016-Jul-16 15:00S 01°44' W 104°60'2 0.9 20.8
2016-Jul-16 13:00S 01°43' W 104°59'3 3.1 20.8
2016-Jul-16 12:00S 01°40' W 104°59'0 0.0 20.8
2016-Jul-16 11:00S 01°40' W 104°59'0 0.1 20.9
2016-Jul-16 09:00S 01°40' W 104°59'7 1.8 21.0
2016-Jul-16 05:00S 01°33' W 104°58'1 0.4 21.1
2016-Jul-16 03:00S 01°32' W 104°58'3 1.6 21.1
2016-Jul-16 01:00S 01°29' W 104°58'2 1.6 21.4
2016-Jul-16 00:00S 01°27' W 104°58'3 2.5 21.5
2016-Jul-15 23:00S 01°25' W 104°57'   21.6
Track history (hours):
 
Tides and Currents Weather Stations Pressure Air Temp Water Temp Dewpoint Dewpoint Depression Visibility Wind Speed Wind Dir Waves Ship Positions

Aadnyj

Last reported at 2016-Jul-25 16:00 UTC. Time now 2016-Jul-25 20:07 UTC.
Position S 01°03' W 102°42'.

Length 56 m.

Type: Towing. MMSI: 413600286.

Water temperature 21.9 ° C

Date/timePositionNaut miles runAvg speedWind from/ knotsBaromVisibWave heightAir tempDewpointWater temp
2016-Jul-25 16:00S 01°03' W 102°42'0 0.0 21.9
2016-Jul-25 14:00S 01°03' W 102°42'2 2.4 21.9
2016-Jul-25 13:00S 01°04' W 102°40'3 3.3 21.9
2016-Jul-25 12:00S 01°06' W 102°42'4 0.6 22.0
2016-Jul-25 05:00S 01°11' W 102°43'2 0.5 22.2
2016-Jul-25 01:00S 01°13' W 102°43'2 1.6 22.4
2016-Jul-25 00:00S 01°14' W 102°43'0 0.0 22.4
2016-Jul-24 23:00S 01°14' W 102°43'5 1.6 22.4
2016-Jul-24 20:00S 01°19' W 102°44'1 0.1 22.4
2016-Jul-24 16:00S 01°18' W 102°43'4 1.0 22.0
2016-Jul-24 12:00S 01°22' W 102°44'0 0.0 22.1
2016-Jul-24 11:00S 01°22' W 102°44'2 1.1 22.1
2016-Jul-24 09:00S 01°23' W 102°46'6 1.0 22.2
2016-Jul-24 03:00S 01°29' W 102°46'0 0.3 22.3
2016-Jul-24 02:00S 01°29' W 102°46'0 0.0 22.4
2016-Jul-24 01:00S 01°29' W 102°46'1 0.8 22.5
2016-Jul-24 00:00S 01°30' W 102°46'2 0.8 22.6
2016-Jul-23 22:00S 01°31' W 102°47'5 2.3 22.6
2016-Jul-23 20:00S 01°36' W 102°49'2 0.5 22.7
2016-Jul-23 15:00S 01°37' W 102°51'2 1.8 22.2
2016-Jul-23 14:00S 01°39' W 102°50'1 1.4 22.2
2016-Jul-23 13:00S 01°40' W 102°51'0 0.4 22.2
2016-Jul-23 12:00S 01°40' W 102°51'1010.0 22.2
2016-Jul-23 11:00S 01°49' W 102°56'0 0.0 22.3
2016-Jul-23 09:00S 01°49' W 102°56'0 0.0 22.4
2016-Jul-23 04:00S 01°49' W 102°56'0 0.0 22.5
2016-Jul-23 01:00S 01°49' W 102°56'1 1.4 22.6
2016-Jul-23 00:00S 01°49' W 102°57'1 1.3 22.7
2016-Jul-22 23:00S 01°50' W 102°57'2 1.9 22.9
2016-Jul-22 22:00S 01°52' W 102°58'0 0.0 22.9
2016-Jul-22 20:00S 01°52' W 102°58'2 0.7 22.7
2016-Jul-22 17:00S 01°54' W 102°57'1 0.6 22.3
2016-Jul-22 15:00S 01°55' W 102°58'2 1.2 22.1
2016-Jul-22 13:00S 01°57' W 102°58'3 2.5 22.2
2016-Jul-22 12:00S 01°60' W 102°58'0 0.0 22.2
2016-Jul-22 11:00S 01°60' W 102°58'0 0.0 22.2
2016-Jul-22 09:00S 01°60' W 102°58'6 6.4 22.3
2016-Jul-22 08:00S 02°05' W 103°01'4 1.0 22.3
2016-Jul-22 04:00S 02°08' W 103°04'0 0.0 22.5
2016-Jul-22 03:00S 02°08' W 103°04'1 0.4 22.5
2016-Jul-22 01:00S 02°08' W 103°04'2 2.3 22.6
2016-Jul-22 00:00S 02°10' W 103°05'0 0.0 22.7
2016-Jul-21 23:00S 02°10' W 103°05'3 3.0 22.8
2016-Jul-21 22:00S 02°13' W 103°06'0 0.0 22.9
2016-Jul-21 21:00S 02°13' W 103°06'6 5.6 22.9
2016-Jul-21 20:00S 02°17' W 103°10'1 0.3 22.8
2016-Jul-21 16:00S 02°18' W 103°10'6 2.8 22.4
2016-Jul-21 14:00S 02°23' W 103°13'3 1.6 22.3
2016-Jul-21 12:00S 02°25' W 103°16'0 0.1 22.3
2016-Jul-21 10:00S 02°25' W 103°16'7 3.6 22.4
2016-Jul-21 08:00S 02°29' W 103°22'0 0.0 22.5
2016-Jul-21 05:00S 02°29' W 103°22'2 2.5 22.6
2016-Jul-21 04:00S 02°30' W 103°24'4 1.2 22.6
2016-Jul-21 01:00S 02°33' W 103°26'2 2.1 22.9
2016-Jul-21 00:00S 02°34' W 103°28'4 1.8 23.0
2016-Jul-20 22:00S 02°35' W 103°31'7 6.6 23.1
2016-Jul-20 21:00S 02°36' W 103°38'5 1.0 23.0
2016-Jul-20 16:00S 02°39' W 103°42'0 0.1 22.4
2016-Jul-20 13:00S 02°39' W 103°42'3 2.6 22.4
2016-Jul-20 12:00S 02°39' W 103°44'2 1.2 22.4
2016-Jul-20 10:00S 02°40' W 103°47'0 0.2 22.3
2016-Jul-20 08:00S 02°41' W 103°46'6 2.0 22.2
2016-Jul-20 05:00S 02°41' W 103°52'2 0.6 22.2
2016-Jul-20 02:00S 02°41' W 103°54'3 2.8 22.5
2016-Jul-20 01:00S 02°42' W 103°57'0 0.1 22.6
2016-Jul-19 23:00S 02°41' W 103°57'3 1.3 22.7
2016-Jul-19 21:00S 02°42' W 103°60'10 1.2 22.9
2016-Jul-19 13:00S 02°41' W 104°09'0 0.0 21.9
2016-Jul-19 12:00S 02°41' W 104°09'3 1.4 21.8
2016-Jul-19 10:00S 02°41' W 104°12'10 1.7 21.8
2016-Jul-19 04:00S 02°37' W 104°22'0 0.0 22.3
2016-Jul-19 03:00S 02°37' W 104°22'0 0.0 22.3
2016-Jul-19 02:00S 02°37' W 104°22'2 1.7 22.4
2016-Jul-19 01:00S 02°36' W 104°23'0 0.4 22.5
2016-Jul-19 00:00S 02°36' W 104°24'4 3.7 22.7
2016-Jul-18 23:00S 02°35' W 104°27'3 1.5 22.7
2016-Jul-18 21:00S 02°33' W 104°30'0 0.0 22.7
2016-Jul-18 17:00S 02°33' W 104°30'4 2.1 21.7
2016-Jul-18 15:00S 02°31' W 104°33'0 0.3 21.1
2016-Jul-18 14:00S 02°31' W 104°33'3 0.7 21.0
2016-Jul-18 10:00S 02°30' W 104°36'2 0.8 21.1
2016-Jul-18 08:00S 02°29' W 104°37'9 1.5 21.1
2016-Jul-18 02:00S 02°24' W 104°44'0 0.4 21.3
2016-Jul-18 01:00S 02°24' W 104°44'3 3.1 21.5
2016-Jul-18 00:00S 02°21' W 104°45'6 1.9 21.6
2016-Jul-17 21:00S 02°16' W 104°49'0 0.0 21.9
2016-Jul-17 17:00S 02°16' W 104°49'5 2.6 21.0
2016-Jul-17 15:00S 02°13' W 104°52'3 1.7 20.7
2016-Jul-17 13:00S 02°10' W 104°54'3 2.6 20.8
2016-Jul-17 12:00S 02°07' W 104°55'0 0.0 20.8
2016-Jul-17 11:00S 02°07' W 104°55'9 1.3 20.8
2016-Jul-17 04:00S 01°58' W 104°58'0 0.0 21.4
2016-Jul-17 03:00S 01°58' W 104°58'2 1.9 21.6
2016-Jul-17 02:00S 01°56' W 104°58'4 2.1 21.6
2016-Jul-17 00:00S 01°53' W 104°59'0 0.0 22.3
2016-Jul-16 22:00S 01°53' W 104°59'5 4.7 22.5
2016-Jul-16 21:00S 01°48' W 104°59'0 0.0 22.3
2016-Jul-16 20:00S 01°48' W 104°59'3 0.7 22.2
2016-Jul-16 16:00S 01°46' W 105°00'1 1.4 21.2
2016-Jul-16 15:00S 01°44' W 104°60'2 0.9 20.8
2016-Jul-16 13:00S 01°43' W 104°59'3 3.1 20.8
2016-Jul-16 12:00S 01°40' W 104°59'0 0.0 20.8
2016-Jul-16 11:00S 01°40' W 104°59'0 0.1 20.9
2016-Jul-16 09:00S 01°40' W 104°59'7 1.8 21.0
2016-Jul-16 05:00S 01°33' W 104°58'1 0.4 21.1
2016-Jul-16 03:00S 01°32' W 104°58'3 1.6 21.1
2016-Jul-16 01:00S 01°29' W 104°58'2 1.6 21.4
2016-Jul-16 00:00S 01°27' W 104°58'3 2.5 21.5
2016-Jul-15 23:00S 01°25' W 104°57'   21.6

Dump ship's entire track history